Aviation Digital Data Service (ADDS)

Output produced by TAFs form (1351 UTC 21 November 2017)
found at http://www.aviationweather.gov/adds/tafs/
 
KDEN 211253Z 31017G24KT 10SM -RA BKN042 BKN070 OVC090 09/01 A3010 RMK AO2 PK WND 34030/1231 RAB21 SLP159 P0001 T00890011
KDEN 211322Z 2113/2218 30014G24KT P6SM -RA BKN040 BKN050 BKN080 
     FM211430 03015G25KT P6SM VCSH BKN040 OVC080 
     FM211800 08012KT P6SM SCT060 BKN080 
     FM212200 15007KT P6SM FEW060 SCT150 
     FM220100 20008KT P6SM FEW110 SCT250